sensor_id;sensor_type;location;lat;lon;timestamp;P1;durP1;ratioP1;P2;durP2;ratioP2
16828;SDS011;8531;48.078;11.968;2023-05-07T00:02:24;4.13;;;2.95;;
16828;SDS011;8531;48.078;11.968;2023-05-07T00:04:50;4.50;;;3.00;;
16828;SDS011;8531;48.078;11.968;2023-05-07T00:07:17;2.90;;;2.67;;
16828;SDS011;8531;48.078;11.968;2023-05-07T00:09:43;3.70;;;2.35;;
16828;SDS011;8531;48.078;11.968;2023-05-07T00:12:08;3.08;;;2.80;;
16828;SDS011;8531;48.078;11.968;2023-05-07T00:14:34;2.60;;;2.40;;
16828;SDS011;8531;48.078;11.968;2023-05-07T00:17:00;2.95;;;2.60;;
16828;SDS011;8531;48.078;11.968;2023-05-07T00:19:25;3.83;;;3.15;;
16828;SDS011;8531;48.078;11.968;2023-05-07T00:21:51;3.10;;;2.75;;
16828;SDS011;8531;48.078;11.968;2023-05-07T00:24:18;5.22;;;3.83;;
16828;SDS011;8531;48.078;11.968;2023-05-07T00:26:44;6.60;;;5.38;;
16828;SDS011;8531;48.078;11.968;2023-05-07T00:29:10;5.47;;;4.47;;
16828;SDS011;8531;48.078;11.968;2023-05-07T00:31:36;5.85;;;4.22;;
16828;SDS011;8531;48.078;11.968;2023-05-07T00:34:02;4.30;;;3.30;;
16828;SDS011;8531;48.078;11.968;2023-05-07T00:36:27;4.10;;;3.70;;
16828;SDS011;8531;48.078;11.968;2023-05-07T00:38:54;5.03;;;4.38;;
16828;SDS011;8531;48.078;11.968;2023-05-07T00:41:20;4.00;;;3.60;;
16828;SDS011;8531;48.078;11.968;2023-05-07T00:43:46;4.38;;;3.83;;
16828;SDS011;8531;48.078;11.968;2023-05-07T00:46:12;4.85;;;3.58;;
16828;SDS011;8531;48.078;11.968;2023-05-07T00:48:39;4.20;;;3.80;;
16828;SDS011;8531;48.078;11.968;2023-05-07T00:51:05;4.28;;;3.45;;
16828;SDS011;8531;48.078;11.968;2023-05-07T00:53:32;3.58;;;3.28;;
16828;SDS011;8531;48.078;11.968;2023-05-07T00:55:57;4.57;;;3.38;;
16828;SDS011;8531;48.078;11.968;2023-05-07T00:58:23;4.05;;;3.60;;
16828;SDS011;8531;48.078;11.968;2023-05-07T01:00:49;3.78;;;3.40;;
16828;SDS011;8531;48.078;11.968;2023-05-07T01:03:15;4.13;;;3.20;;
16828;SDS011;8531;48.078;11.968;2023-05-07T01:05:41;3.50;;;3.17;;
16828;SDS011;8531;48.078;11.968;2023-05-07T01:08:08;3.95;;;3.65;;
16828;SDS011;8531;48.078;11.968;2023-05-07T01:10:35;5.57;;;3.90;;
16828;SDS011;8531;48.078;11.968;2023-05-07T01:13:01;5.32;;;4.20;;
16828;SDS011;8531;48.078;11.968;2023-05-07T01:15:27;4.60;;;3.47;;
16828;SDS011;8531;48.078;11.968;2023-05-07T01:17:53;8.02;;;4.20;;
16828;SDS011;8531;48.078;11.968;2023-05-07T01:20:18;4.95;;;4.10;;
16828;SDS011;8531;48.078;11.968;2023-05-07T01:22:44;3.65;;;3.35;;
16828;SDS011;8531;48.078;11.968;2023-05-07T01:25:10;3.35;;;3.05;;
16828;SDS011;8531;48.078;11.968;2023-05-07T01:27:36;3.47;;;3.25;;
16828;SDS011;8531;48.078;11.968;2023-05-07T01:30:05;5.03;;;4.63;;
16828;SDS011;8531;48.078;11.968;2023-05-07T01:35:06;4.70;;;4.15;;
16828;SDS011;8531;48.078;11.968;2023-05-07T01:37:34;4.05;;;3.67;;
16828;SDS011;8531;48.078;11.968;2023-05-07T01:40:01;3.38;;;3.08;;
16828;SDS011;8531;48.078;11.968;2023-05-07T01:42:28;3.70;;;3.22;;
16828;SDS011;8531;48.078;11.968;2023-05-07T01:44:54;5.57;;;4.40;;
16828;SDS011;8531;48.078;11.968;2023-05-07T01:47:20;5.47;;;4.82;;
16828;SDS011;8531;48.078;11.968;2023-05-07T01:49:46;5.50;;;5.03;;
16828;SDS011;8531;48.078;11.968;2023-05-07T01:52:12;5.15;;;4.38;;
16828;SDS011;8531;48.078;11.968;2023-05-07T01:54:38;4.70;;;4.30;;
16828;SDS011;8531;48.078;11.968;2023-05-07T01:57:04;5.03;;;3.95;;
16828;SDS011;8531;48.078;11.968;2023-05-07T01:59:29;5.47;;;4.07;;
16828;SDS011;8531;48.078;11.968;2023-05-07T02:01:55;4.75;;;4.35;;
16828;SDS011;8531;48.078;11.968;2023-05-07T02:04:21;4.65;;;4.25;;
16828;SDS011;8531;48.078;11.968;2023-05-07T02:06:47;6.43;;;4.50;;
16828;SDS011;8531;48.078;11.968;2023-05-07T02:09:13;4.72;;;3.90;;
16828;SDS011;8531;48.078;11.968;2023-05-07T02:11:39;6.97;;;6.30;;
16828;SDS011;8531;48.078;11.968;2023-05-07T02:14:05;5.60;;;4.40;;
16828;SDS011;8531;48.078;11.968;2023-05-07T02:16:31;6.53;;;4.30;;
16828;SDS011;8531;48.078;11.968;2023-05-07T02:18:56;6.57;;;4.65;;
16828;SDS011;8531;48.078;11.968;2023-05-07T02:21:23;5.13;;;4.68;;
16828;SDS011;8531;48.078;11.968;2023-05-07T02:23:50;4.75;;;4.30;;
16828;SDS011;8531;48.078;11.968;2023-05-07T02:26:15;4.32;;;3.92;;
16828;SDS011;8531;48.078;11.968;2023-05-07T02:28:41;4.93;;;4.50;;
16828;SDS011;8531;48.078;11.968;2023-05-07T02:31:06;5.40;;;3.97;;
16828;SDS011;8531;48.078;11.968;2023-05-07T02:33:32;5.00;;;3.95;;
16828;SDS011;8531;48.078;11.968;2023-05-07T02:36:06;4.35;;;3.95;;
16828;SDS011;8531;48.078;11.968;2023-05-07T02:38:35;4.55;;;4.15;;
16828;SDS011;8531;48.078;11.968;2023-05-07T02:41:01;5.22;;;4.03;;
16828;SDS011;8531;48.078;11.968;2023-05-07T02:43:27;4.60;;;4.20;;
16828;SDS011;8531;48.078;11.968;2023-05-07T02:46:05;4.78;;;4.20;;
16828;SDS011;8531;48.078;11.968;2023-05-07T02:48:32;5.50;;;4.35;;
16828;SDS011;8531;48.078;11.968;2023-05-07T02:50:58;4.40;;;4.00;;
16828;SDS011;8531;48.078;11.968;2023-05-07T02:53:24;4.78;;;4.25;;
16828;SDS011;8531;48.078;11.968;2023-05-07T02:55:52;5.18;;;4.03;;
16828;SDS011;8531;48.078;11.968;2023-05-07T02:58:20;4.88;;;4.38;;
16828;SDS011;8531;48.078;11.968;2023-05-07T03:00:46;4.97;;;4.40;;
16828;SDS011;8531;48.078;11.968;2023-05-07T03:03:12;6.45;;;3.95;;
16828;SDS011;8531;48.078;11.968;2023-05-07T03:05:37;4.50;;;4.10;;
16828;SDS011;8531;48.078;11.968;2023-05-07T03:08:03;6.47;;;5.38;;
16828;SDS011;8531;48.078;11.968;2023-05-07T03:10:29;5.20;;;4.72;;
16828;SDS011;8531;48.078;11.968;2023-05-07T03:12:55;5.78;;;5.18;;
16828;SDS011;8531;48.078;11.968;2023-05-07T03:15:21;5.18;;;4.78;;
16828;SDS011;8531;48.078;11.968;2023-05-07T03:17:47;5.65;;;5.00;;
16828;SDS011;8531;48.078;11.968;2023-05-07T03:20:13;5.78;;;4.80;;
16828;SDS011;8531;48.078;11.968;2023-05-07T03:22:39;5.43;;;4.47;;
16828;SDS011;8531;48.078;11.968;2023-05-07T03:25:05;4.93;;;4.32;;
16828;SDS011;8531;48.078;11.968;2023-05-07T03:27:31;4.43;;;4.03;;
16828;SDS011;8531;48.078;11.968;2023-05-07T03:29:57;5.63;;;4.47;;
16828;SDS011;8531;48.078;11.968;2023-05-07T03:32:22;5.93;;;5.32;;
16828;SDS011;8531;48.078;11.968;2023-05-07T03:34:48;5.28;;;4.78;;
16828;SDS011;8531;48.078;11.968;2023-05-07T03:37:14;5.07;;;4.57;;
16828;SDS011;8531;48.078;11.968;2023-05-07T03:39:40;5.32;;;4.82;;
16828;SDS011;8531;48.078;11.968;2023-05-07T03:42:05;4.97;;;4.40;;
16828;SDS011;8531;48.078;11.968;2023-05-07T03:44:32;5.07;;;4.68;;
16828;SDS011;8531;48.078;11.968;2023-05-07T03:46:57;5.85;;;4.68;;
16828;SDS011;8531;48.078;11.968;2023-05-07T03:49:23;5.95;;;4.80;;
16828;SDS011;8531;48.078;11.968;2023-05-07T03:51:48;5.68;;;5.10;;
16828;SDS011;8531;48.078;11.968;2023-05-07T03:54:14;6.43;;;5.13;;
16828;SDS011;8531;48.078;11.968;2023-05-07T03:56:40;5.82;;;5.10;;
16828;SDS011;8531;48.078;11.968;2023-05-07T03:59:05;5.63;;;4.80;;
16828;SDS011;8531;48.078;11.968;2023-05-07T04:01:31;5.25;;;4.75;;
16828;SDS011;8531;48.078;11.968;2023-05-07T04:03:57;4.75;;;4.35;;
16828;SDS011;8531;48.078;11.968;2023-05-07T04:06:22;6.38;;;5.78;;
16828;SDS011;8531;48.078;11.968;2023-05-07T04:08:49;6.78;;;5.13;;
16828;SDS011;8531;48.078;11.968;2023-05-07T04:11:14;6.10;;;5.55;;
16828;SDS011;8531;48.078;11.968;2023-05-07T04:13:40;6.18;;;5.57;;
16828;SDS011;8531;48.078;11.968;2023-05-07T04:16:06;8.88;;;5.13;;
16828;SDS011;8531;48.078;11.968;2023-05-07T04:18:31;7.45;;;4.88;;
16828;SDS011;8531;48.078;11.968;2023-05-07T04:20:57;5.93;;;5.03;;
16828;SDS011;8531;48.078;11.968;2023-05-07T04:23:23;5.10;;;4.53;;
16828;SDS011;8531;48.078;11.968;2023-05-07T04:25:48;6.75;;;5.90;;
16828;SDS011;8531;48.078;11.968;2023-05-07T04:28:15;6.55;;;5.13;;
16828;SDS011;8531;48.078;11.968;2023-05-07T04:30:40;7.57;;;5.32;;
16828;SDS011;8531;48.078;11.968;2023-05-07T04:33:06;5.97;;;5.38;;
16828;SDS011;8531;48.078;11.968;2023-05-07T04:35:32;5.75;;;5.22;;
16828;SDS011;8531;48.078;11.968;2023-05-07T04:37:58;5.97;;;5.47;;
16828;SDS011;8531;48.078;11.968;2023-05-07T04:40:23;5.72;;;5.22;;
16828;SDS011;8531;48.078;11.968;2023-05-07T04:42:49;6.53;;;4.97;;
16828;SDS011;8531;48.078;11.968;2023-05-07T04:45:16;6.00;;;5.35;;
16828;SDS011;8531;48.078;11.968;2023-05-07T04:47:41;6.22;;;5.15;;
16828;SDS011;8531;48.078;11.968;2023-05-07T04:50:07;6.07;;;5.47;;
16828;SDS011;8531;48.078;11.968;2023-05-07T04:52:33;6.43;;;5.68;;
16828;SDS011;8531;48.078;11.968;2023-05-07T04:54:59;6.20;;;5.60;;
16828;SDS011;8531;48.078;11.968;2023-05-07T04:57:26;5.50;;;5.00;;
16828;SDS011;8531;48.078;11.968;2023-05-07T04:59:52;7.18;;;5.25;;
16828;SDS011;8531;48.078;11.968;2023-05-07T05:02:18;6.15;;;5.55;;
16828;SDS011;8531;48.078;11.968;2023-05-07T05:04:44;6.10;;;5.50;;
16828;SDS011;8531;48.078;11.968;2023-05-07T05:07:10;13.77;;;7.18;;
16828;SDS011;8531;48.078;11.968;2023-05-07T05:09:36;6.13;;;5.53;;
16828;SDS011;8531;48.078;11.968;2023-05-07T05:12:01;7.22;;;6.53;;
16828;SDS011;8531;48.078;11.968;2023-05-07T05:14:27;9.63;;;6.93;;
16828;SDS011;8531;48.078;11.968;2023-05-07T05:16:53;10.15;;;6.18;;
16828;SDS011;8531;48.078;11.968;2023-05-07T05:19:18;7.60;;;6.90;;
16828;SDS011;8531;48.078;11.968;2023-05-07T05:21:44;9.27;;;7.07;;
16828;SDS011;8531;48.078;11.968;2023-05-07T05:24:10;7.43;;;6.63;;
16828;SDS011;8531;48.078;11.968;2023-05-07T05:26:36;8.18;;;6.93;;
16828;SDS011;8531;48.078;11.968;2023-05-07T05:29:01;7.75;;;7.15;;
16828;SDS011;8531;48.078;11.968;2023-05-07T05:31:27;8.77;;;6.72;;
16828;SDS011;8531;48.078;11.968;2023-05-07T05:33:52;6.82;;;6.15;;
16828;SDS011;8531;48.078;11.968;2023-05-07T05:36:18;7.85;;;7.15;;
16828;SDS011;8531;48.078;11.968;2023-05-07T05:38:44;7.85;;;7.05;;
16828;SDS011;8531;48.078;11.968;2023-05-07T05:41:10;9.85;;;7.20;;
16828;SDS011;8531;48.078;11.968;2023-05-07T05:43:35;7.82;;;6.97;;
16828;SDS011;8531;48.078;11.968;2023-05-07T05:46:01;7.38;;;6.40;;
16828;SDS011;8531;48.078;11.968;2023-05-07T05:48:28;7.72;;;6.43;;
16828;SDS011;8531;48.078;11.968;2023-05-07T05:50:54;7.40;;;6.20;;
16828;SDS011;8531;48.078;11.968;2023-05-07T05:53:19;6.15;;;5.47;;
16828;SDS011;8531;48.078;11.968;2023-05-07T05:55:45;7.78;;;6.20;;
16828;SDS011;8531;48.078;11.968;2023-05-07T05:58:11;6.55;;;5.82;;
16828;SDS011;8531;48.078;11.968;2023-05-07T06:00:37;5.32;;;4.82;;
16828;SDS011;8531;48.078;11.968;2023-05-07T06:03:03;8.63;;;6.40;;
16828;SDS011;8531;48.078;11.968;2023-05-07T06:05:28;6.72;;;6.13;;
16828;SDS011;8531;48.078;11.968;2023-05-07T06:07:54;10.25;;;6.20;;
16828;SDS011;8531;48.078;11.968;2023-05-07T06:10:21;6.28;;;5.22;;
16828;SDS011;8531;48.078;11.968;2023-05-07T06:12:46;5.68;;;4.65;;
16828;SDS011;8531;48.078;11.968;2023-05-07T06:15:12;4.18;;;3.67;;
16828;SDS011;8531;48.078;11.968;2023-05-07T06:17:37;5.15;;;3.42;;
16828;SDS011;8531;48.078;11.968;2023-05-07T06:20:03;3.70;;;2.92;;
16828;SDS011;8531;48.078;11.968;2023-05-07T06:22:29;2.90;;;2.60;;
16828;SDS011;8531;48.078;11.968;2023-05-07T06:24:55;3.75;;;2.83;;
16828;SDS011;8531;48.078;11.968;2023-05-07T06:27:21;3.92;;;2.75;;
16828;SDS011;8531;48.078;11.968;2023-05-07T06:29:47;3.92;;;2.95;;
16828;SDS011;8531;48.078;11.968;2023-05-07T06:32:13;3.10;;;2.90;;
16828;SDS011;8531;48.078;11.968;2023-05-07T06:34:39;4.03;;;3.22;;
16828;SDS011;8531;48.078;11.968;2023-05-07T06:37:06;4.75;;;3.25;;
16828;SDS011;8531;48.078;11.968;2023-05-07T06:39:32;4.28;;;3.33;;
16828;SDS011;8531;48.078;11.968;2023-05-07T06:41:59;4.32;;;3.40;;
16828;SDS011;8531;48.078;11.968;2023-05-07T06:44:25;4.95;;;3.28;;
16828;SDS011;8531;48.078;11.968;2023-05-07T06:46:50;5.70;;;2.88;;
16828;SDS011;8531;48.078;11.968;2023-05-07T06:49:16;4.43;;;2.90;;
16828;SDS011;8531;48.078;11.968;2023-05-07T06:51:42;3.10;;;2.80;;
16828;SDS011;8531;48.078;11.968;2023-05-07T06:54:07;4.97;;;3.67;;
16828;SDS011;8531;48.078;11.968;2023-05-07T06:56:33;3.40;;;3.10;;
16828;SDS011;8531;48.078;11.968;2023-05-07T06:58:59;2.85;;;2.65;;
16828;SDS011;8531;48.078;11.968;2023-05-07T07:01:25;3.55;;;2.30;;
16828;SDS011;8531;48.078;11.968;2023-05-07T07:03:51;4.18;;;3.08;;
16828;SDS011;8531;48.078;11.968;2023-05-07T07:06:17;6.22;;;3.30;;
16828;SDS011;8531;48.078;11.968;2023-05-07T07:08:42;3.00;;;2.67;;
16828;SDS011;8531;48.078;11.968;2023-05-07T07:11:09;4.30;;;3.45;;
16828;SDS011;8531;48.078;11.968;2023-05-07T07:13:35;4.43;;;3.08;;
16828;SDS011;8531;48.078;11.968;2023-05-07T07:16:01;3.33;;;3.03;;
16828;SDS011;8531;48.078;11.968;2023-05-07T07:18:27;4.03;;;3.20;;
16828;SDS011;8531;48.078;11.968;2023-05-07T07:20:52;3.90;;;3.00;;
16828;SDS011;8531;48.078;11.968;2023-05-07T07:23:18;4.30;;;3.90;;
16828;SDS011;8531;48.078;11.968;2023-05-07T07:25:44;4.35;;;3.45;;
16828;SDS011;8531;48.078;11.968;2023-05-07T07:28:09;5.10;;;4.10;;
16828;SDS011;8531;48.078;11.968;2023-05-07T07:30:36;5.63;;;4.22;;
16828;SDS011;8531;48.078;11.968;2023-05-07T07:33:02;5.63;;;4.18;;
16828;SDS011;8531;48.078;11.968;2023-05-07T07:35:28;8.52;;;4.53;;
16828;SDS011;8531;48.078;11.968;2023-05-07T07:37:54;4.00;;;3.70;;
16828;SDS011;8531;48.078;11.968;2023-05-07T07:40:20;3.85;;;3.55;;
16828;SDS011;8531;48.078;11.968;2023-05-07T07:42:46;4.53;;;3.58;;
16828;SDS011;8531;48.078;11.968;2023-05-07T07:45:12;4.53;;;4.10;;
16828;SDS011;8531;48.078;11.968;2023-05-07T07:47:38;4.80;;;4.40;;
16828;SDS011;8531;48.078;11.968;2023-05-07T07:50:05;5.05;;;4.65;;
16828;SDS011;8531;48.078;11.968;2023-05-07T07:52:31;4.70;;;4.32;;
16828;SDS011;8531;48.078;11.968;2023-05-07T07:54:56;4.50;;;3.80;;
16828;SDS011;8531;48.078;11.968;2023-05-07T07:57:22;4.72;;;4.07;;
16828;SDS011;8531;48.078;11.968;2023-05-07T07:59:48;4.35;;;3.92;;
16828;SDS011;8531;48.078;11.968;2023-05-07T08:02:15;7.68;;;3.50;;
16828;SDS011;8531;48.078;11.968;2023-05-07T08:04:41;3.60;;;3.30;;
16828;SDS011;8531;48.078;11.968;2023-05-07T08:07:08;3.35;;;3.05;;
16828;SDS011;8531;48.078;11.968;2023-05-07T08:09:34;4.82;;;3.72;;
16828;SDS011;8531;48.078;11.968;2023-05-07T08:12:00;3.33;;;2.92;;
16828;SDS011;8531;48.078;11.968;2023-05-07T08:14:26;6.68;;;3.97;;
16828;SDS011;8531;48.078;11.968;2023-05-07T08:16:53;5.15;;;3.80;;
16828;SDS011;8531;48.078;11.968;2023-05-07T08:19:19;3.80;;;3.38;;
16828;SDS011;8531;48.078;11.968;2023-05-07T08:21:45;4.13;;;3.72;;
16828;SDS011;8531;48.078;11.968;2023-05-07T08:24:13;3.80;;;3.50;;
16828;SDS011;8531;48.078;11.968;2023-05-07T08:26:39;3.60;;;3.30;;
16828;SDS011;8531;48.078;11.968;2023-05-07T08:29:05;4.65;;;3.40;;
16828;SDS011;8531;48.078;11.968;2023-05-07T08:31:30;3.60;;;3.30;;
16828;SDS011;8531;48.078;11.968;2023-05-07T08:33:57;4.75;;;4.30;;
16828;SDS011;8531;48.078;11.968;2023-05-07T08:36:23;6.30;;;4.03;;
16828;SDS011;8531;48.078;11.968;2023-05-07T08:38:50;4.85;;;3.70;;
16828;SDS011;8531;48.078;11.968;2023-05-07T08:41:16;4.97;;;3.78;;
16828;SDS011;8531;48.078;11.968;2023-05-07T08:43:42;4.93;;;4.00;;
16828;SDS011;8531;48.078;11.968;2023-05-07T08:46:12;3.75;;;3.35;;
16828;SDS011;8531;48.078;11.968;2023-05-07T08:48:44;5.72;;;4.43;;
16828;SDS011;8531;48.078;11.968;2023-05-07T08:51:13;4.00;;;3.58;;
16828;SDS011;8531;48.078;11.968;2023-05-07T08:53:41;3.83;;;3.53;;
16828;SDS011;8531;48.078;11.968;2023-05-07T08:56:08;4.65;;;3.65;;
16828;SDS011;8531;48.078;11.968;2023-05-07T08:58:34;4.25;;;3.65;;
16828;SDS011;8531;48.078;11.968;2023-05-07T09:01:06;4.35;;;3.70;;
16828;SDS011;8531;48.078;11.968;2023-05-07T09:03:34;4.65;;;3.53;;
16828;SDS011;8531;48.078;11.968;2023-05-07T09:06:01;4.75;;;3.47;;
16828;SDS011;8531;48.078;11.968;2023-05-07T09:08:27;3.22;;;2.92;;
16828;SDS011;8531;48.078;11.968;2023-05-07T09:10:54;3.17;;;2.88;;
16828;SDS011;8531;48.078;11.968;2023-05-07T09:13:19;4.22;;;3.03;;
16828;SDS011;8531;48.078;11.968;2023-05-07T09:15:45;3.53;;;3.22;;
16828;SDS011;8531;48.078;11.968;2023-05-07T09:18:14;3.60;;;3.03;;
16828;SDS011;8531;48.078;11.968;2023-05-07T09:20:41;5.10;;;3.03;;
16828;SDS011;8531;48.078;11.968;2023-05-07T09:23:07;4.03;;;2.60;;
16828;SDS011;8531;48.078;11.968;2023-05-07T09:25:33;4.38;;;3.05;;
16828;SDS011;8531;48.078;11.968;2023-05-07T09:28:00;3.15;;;2.50;;
16828;SDS011;8531;48.078;11.968;2023-05-07T09:30:31;3.50;;;3.20;;
16828;SDS011;8531;48.078;11.968;2023-05-07T09:32:58;3.10;;;2.90;;
16828;SDS011;8531;48.078;11.968;2023-05-07T09:35:25;5.82;;;2.95;;
16828;SDS011;8531;48.078;11.968;2023-05-07T09:37:57;4.22;;;2.75;;
16828;SDS011;8531;48.078;11.968;2023-05-07T09:40:28;3.75;;;2.28;;
16828;SDS011;8531;48.078;11.968;2023-05-07T09:42:55;3.67;;;2.90;;
16828;SDS011;8531;48.078;11.968;2023-05-07T09:45:25;5.68;;;2.85;;
16828;SDS011;8531;48.078;11.968;2023-05-07T09:47:53;2.72;;;2.50;;
16828;SDS011;8531;48.078;11.968;2023-05-07T09:50:22;4.38;;;2.30;;
16828;SDS011;8531;48.078;11.968;2023-05-07T09:52:54;3.22;;;2.70;;
16828;SDS011;8531;48.078;11.968;2023-05-07T09:55:20;2.92;;;2.60;;
16828;SDS011;8531;48.078;11.968;2023-05-07T09:57:47;2.40;;;2.20;;
16828;SDS011;8531;48.078;11.968;2023-05-07T10:00:21;2.10;;;1.92;;
16828;SDS011;8531;48.078;11.968;2023-05-07T10:02:48;4.10;;;2.53;;
16828;SDS011;8531;48.078;11.968;2023-05-07T10:05:16;3.70;;;3.08;;
16828;SDS011;8531;48.078;11.968;2023-05-07T10:07:46;2.28;;;1.70;;
16828;SDS011;8531;48.078;11.968;2023-05-07T10:10:12;2.05;;;1.83;;
16828;SDS011;8531;48.078;11.968;2023-05-07T10:12:40;4.68;;;1.85;;
16828;SDS011;8531;48.078;11.968;2023-05-07T10:15:09;4.10;;;1.42;;
16828;SDS011;8531;48.078;11.968;2023-05-07T10:17:37;5.13;;;1.77;;
16828;SDS011;8531;48.078;11.968;2023-05-07T10:20:04;1.98;;;1.52;;
16828;SDS011;8531;48.078;11.968;2023-05-07T10:22:43;1.73;;;1.20;;
16828;SDS011;8531;48.078;11.968;2023-05-07T10:25:14;3.42;;;1.60;;
16828;SDS011;8531;48.078;11.968;2023-05-07T10:27:43;1.05;;;1.02;;
16828;SDS011;8531;48.078;11.968;2023-05-07T10:33:08;2.60;;;2.00;;
16828;SDS011;8531;48.078;11.968;2023-05-07T10:35:40;1.67;;;1.50;;
16828;SDS011;8531;48.078;11.968;2023-05-07T10:38:08;3.15;;;1.60;;
16828;SDS011;8531;48.078;11.968;2023-05-07T10:40:34;3.35;;;1.80;;
16828;SDS011;8531;48.078;11.968;2023-05-07T10:43:01;3.10;;;2.80;;
16828;SDS011;8531;48.078;11.968;2023-05-07T10:45:30;2.53;;;2.33;;
16828;SDS011;8531;48.078;11.968;2023-05-07T10:48:05;4.90;;;2.28;;
16828;SDS011;8531;48.078;11.968;2023-05-07T10:50:34;3.53;;;1.92;;
16828;SDS011;8531;48.078;11.968;2023-05-07T10:55:46;5.10;;;2.83;;
16828;SDS011;8531;48.078;11.968;2023-05-07T11:01:01;2.50;;;2.10;;
16828;SDS011;8531;48.078;11.968;2023-05-07T11:03:27;2.35;;;1.25;;
16828;SDS011;8531;48.078;11.968;2023-05-07T11:08:55;2.55;;;1.30;;
16828;SDS011;8531;48.078;11.968;2023-05-07T11:17:09;2.25;;;1.92;;
16828;SDS011;8531;48.078;11.968;2023-05-07T11:19:50;2.40;;;1.58;;
16828;SDS011;8531;48.078;11.968;2023-05-07T11:25:04;1.88;;;1.63;;
16828;SDS011;8531;48.078;11.968;2023-05-07T11:27:31;2.00;;;1.80;;
16828;SDS011;8531;48.078;11.968;2023-05-07T11:29:57;1.60;;;1.42;;
16828;SDS011;8531;48.078;11.968;2023-05-07T11:34:53;1.65;;;1.23;;
16828;SDS011;8531;48.078;11.968;2023-05-07T11:37:25;2.15;;;1.20;;
16828;SDS011;8531;48.078;11.968;2023-05-07T11:40:06;1.95;;;1.20;;
16828;SDS011;8531;48.078;11.968;2023-05-07T11:42:36;1.85;;;1.50;;
16828;SDS011;8531;48.078;11.968;2023-05-07T11:45:03;1.60;;;1.45;;
16828;SDS011;8531;48.078;11.968;2023-05-07T11:47:33;2.58;;;1.70;;
16828;SDS011;8531;48.078;11.968;2023-05-07T11:50:06;2.15;;;1.60;;
16828;SDS011;8531;48.078;11.968;2023-05-07T11:52:33;1.35;;;1.25;;
16828;SDS011;8531;48.078;11.968;2023-05-07T11:54:59;1.90;;;1.38;;
16828;SDS011;8531;48.078;11.968;2023-05-07T11:57:26;2.08;;;1.30;;
16828;SDS011;8531;48.078;11.968;2023-05-07T11:59:53;2.53;;;1.42;;
16828;SDS011;8531;48.078;11.968;2023-05-07T12:02:22;3.95;;;1.65;;
16828;SDS011;8531;48.078;11.968;2023-05-07T12:04:50;1.55;;;1.08;;
16828;SDS011;8531;48.078;11.968;2023-05-07T12:07:16;1.52;;;1.30;;
16828;SDS011;8531;48.078;11.968;2023-05-07T12:09:43;2.45;;;1.45;;
16828;SDS011;8531;48.078;11.968;2023-05-07T12:12:10;1.58;;;1.35;;
16828;SDS011;8531;48.078;11.968;2023-05-07T12:14:42;1.95;;;1.10;;
16828;SDS011;8531;48.078;11.968;2023-05-07T12:17:09;1.23;;;1.13;;
16828;SDS011;8531;48.078;11.968;2023-05-07T12:19:36;2.92;;;1.40;;
16828;SDS011;8531;48.078;11.968;2023-05-07T12:22:03;2.08;;;1.40;;
16828;SDS011;8531;48.078;11.968;2023-05-07T12:24:41;5.07;;;1.55;;
16828;SDS011;8531;48.078;11.968;2023-05-07T12:27:10;2.85;;;1.73;;
16828;SDS011;8531;48.078;11.968;2023-05-07T12:29:36;2.72;;;1.10;;
16828;SDS011;8531;48.078;11.968;2023-05-07T12:32:04;3.38;;;1.60;;
16828;SDS011;8531;48.078;11.968;2023-05-07T12:34:31;2.00;;;1.30;;
16828;SDS011;8531;48.078;11.968;2023-05-07T12:36:57;1.95;;;0.93;;
16828;SDS011;8531;48.078;11.968;2023-05-07T12:39:26;2.60;;;1.63;;
16828;SDS011;8531;48.078;11.968;2023-05-07T12:41:56;3.33;;;1.45;;
16828;SDS011;8531;48.078;11.968;2023-05-07T12:44:24;1.85;;;1.30;;
16828;SDS011;8531;48.078;11.968;2023-05-07T12:46:53;1.30;;;1.00;;
16828;SDS011;8531;48.078;11.968;2023-05-07T12:49:19;2.17;;;1.10;;
16828;SDS011;8531;48.078;11.968;2023-05-07T12:51:46;3.20;;;1.30;;
16828;SDS011;8531;48.078;11.968;2023-05-07T12:54:13;5.15;;;1.50;;
16828;SDS011;8531;48.078;11.968;2023-05-07T12:56:39;1.38;;;1.23;;
16828;SDS011;8531;48.078;11.968;2023-05-07T12:59:05;2.38;;;1.95;;
16828;SDS011;8531;48.078;11.968;2023-05-07T13:01:30;1.52;;;1.42;;
16828;SDS011;8531;48.078;11.968;2023-05-07T13:04:02;1.98;;;1.50;;
16828;SDS011;8531;48.078;11.968;2023-05-07T13:06:29;2.15;;;1.30;;
16828;SDS011;8531;48.078;11.968;2023-05-07T13:08:55;2.92;;;1.50;;
16828;SDS011;8531;48.078;11.968;2023-05-07T13:11:20;4.90;;;1.77;;
16828;SDS011;8531;48.078;11.968;2023-05-07T13:13:46;4.75;;;1.80;;
16828;SDS011;8531;48.078;11.968;2023-05-07T13:16:12;1.90;;;1.50;;
16828;SDS011;8531;48.078;11.968;2023-05-07T13:18:38;1.77;;;1.48;;
16828;SDS011;8531;48.078;11.968;2023-05-07T13:21:05;2.92;;;1.77;;
16828;SDS011;8531;48.078;11.968;2023-05-07T13:23:30;1.70;;;1.50;;
16828;SDS011;8531;48.078;11.968;2023-05-07T13:25:56;1.85;;;1.50;;
16828;SDS011;8531;48.078;11.968;2023-05-07T13:28:22;1.38;;;1.27;;
16828;SDS011;8531;48.078;11.968;2023-05-07T13:30:49;1.65;;;1.42;;
16828;SDS011;8531;48.078;11.968;2023-05-07T13:33:16;2.58;;;1.50;;
16828;SDS011;8531;48.078;11.968;2023-05-07T13:35:42;2.70;;;1.40;;
16828;SDS011;8531;48.078;11.968;2023-05-07T13:38:08;1.60;;;1.50;;
16828;SDS011;8531;48.078;11.968;2023-05-07T13:40:33;2.00;;;1.50;;
16828;SDS011;8531;48.078;11.968;2023-05-07T13:42:59;2.17;;;1.67;;
16828;SDS011;8531;48.078;11.968;2023-05-07T13:45:27;2.55;;;1.50;;
16828;SDS011;8531;48.078;11.968;2023-05-07T13:47:54;1.98;;;1.48;;
16828;SDS011;8531;48.078;11.968;2023-05-07T13:50:20;2.63;;;1.00;;
16828;SDS011;8531;48.078;11.968;2023-05-07T13:52:46;1.35;;;1.25;;
16828;SDS011;8531;48.078;11.968;2023-05-07T13:55:18;1.10;;;0.95;;
16828;SDS011;8531;48.078;11.968;2023-05-07T13:57:48;3.45;;;1.75;;
16828;SDS011;8531;48.078;11.968;2023-05-07T14:00:23;2.10;;;1.20;;
16828;SDS011;8531;48.078;11.968;2023-05-07T14:02:49;3.15;;;1.48;;
16828;SDS011;8531;48.078;11.968;2023-05-07T14:05:15;1.48;;;1.23;;
16828;SDS011;8531;48.078;11.968;2023-05-07T14:07:41;1.45;;;1.10;;
16828;SDS011;8531;48.078;11.968;2023-05-07T14:10:06;2.03;;;1.20;;
16828;SDS011;8531;48.078;11.968;2023-05-07T14:12:32;2.53;;;1.00;;
16828;SDS011;8531;48.078;11.968;2023-05-07T14:14:58;1.50;;;1.40;;
16828;SDS011;8531;48.078;11.968;2023-05-07T14:17:24;3.05;;;1.17;;
16828;SDS011;8531;48.078;11.968;2023-05-07T14:19:51;1.40;;;1.20;;
16828;SDS011;8531;48.078;11.968;2023-05-07T14:22:21;3.78;;;1.20;;
16828;SDS011;8531;48.078;11.968;2023-05-07T14:24:47;1.70;;;1.00;;
16828;SDS011;8531;48.078;11.968;2023-05-07T14:27:13;2.55;;;1.63;;
16828;SDS011;8531;48.078;11.968;2023-05-07T14:29:39;1.35;;;1.00;;
16828;SDS011;8531;48.078;11.968;2023-05-07T14:32:06;2.03;;;1.65;;
16828;SDS011;8531;48.078;11.968;2023-05-07T14:34:31;1.27;;;1.17;;
16828;SDS011;8531;48.078;11.968;2023-05-07T14:36:57;2.97;;;1.25;;
16828;SDS011;8531;48.078;11.968;2023-05-07T14:39:24;1.45;;;1.30;;
16828;SDS011;8531;48.078;11.968;2023-05-07T14:41:50;2.92;;;1.20;;
16828;SDS011;8531;48.078;11.968;2023-05-07T14:44:16;1.85;;;1.20;;
16828;SDS011;8531;48.078;11.968;2023-05-07T14:46:42;1.27;;;1.17;;
16828;SDS011;8531;48.078;11.968;2023-05-07T14:49:07;1.02;;;0.93;;
16828;SDS011;8531;48.078;11.968;2023-05-07T14:51:41;3.17;;;1.23;;
16828;SDS011;8531;48.078;11.968;2023-05-07T14:54:07;1.60;;;1.40;;
16828;SDS011;8531;48.078;11.968;2023-05-07T14:56:33;3.25;;;1.48;;
16828;SDS011;8531;48.078;11.968;2023-05-07T14:59:00;2.53;;;1.25;;
16828;SDS011;8531;48.078;11.968;2023-05-07T15:01:27;3.53;;;1.40;;
16828;SDS011;8531;48.078;11.968;2023-05-07T15:03:53;2.50;;;1.23;;
16828;SDS011;8531;48.078;11.968;2023-05-07T15:06:19;4.28;;;1.58;;
16828;SDS011;8531;48.078;11.968;2023-05-07T15:08:45;1.55;;;1.00;;
16828;SDS011;8531;48.078;11.968;2023-05-07T15:11:11;2.35;;;1.10;;